createdAt,value
2023-02-04T00:00:38.810Z,542.78
2023-02-04T00:03:07.503Z,612.13
2023-02-04T00:05:36.308Z,566.20
2023-02-04T00:08:04.949Z,488.40
2023-02-04T00:10:33.756Z,570.05
2023-02-04T00:13:03.798Z,580.60
2023-02-04T00:15:32.230Z,538.22
2023-02-04T00:18:00.689Z,508.00
2023-02-04T00:20:29.422Z,545.28
2023-02-04T00:22:58.083Z,544.45
2023-02-04T00:25:26.603Z,579.40
2023-02-04T00:27:55.051Z,474.92
2023-02-04T00:30:24.782Z,526.28
2023-02-04T00:32:54.914Z,497.63
2023-02-04T00:35:23.690Z,514.88
2023-02-04T00:37:52.220Z,565.88
2023-02-04T00:40:20.752Z,590.70
2023-02-04T00:42:50.628Z,517.35
2023-02-04T00:45:18.973Z,531.22
2023-02-04T00:47:48.789Z,516.72
2023-02-04T00:50:17.627Z,538.97
2023-02-04T00:52:46.034Z,601.63
2023-02-04T00:55:16.931Z,609.22
2023-02-04T00:57:46.960Z,473.27
2023-02-04T01:00:16.565Z,551.50
2023-02-04T01:02:45.007Z,608.25
2023-02-04T01:05:14.760Z,560.55
2023-02-04T01:07:43.254Z,603.03
2023-02-04T01:10:11.924Z,624.47
2023-02-04T01:12:40.436Z,610.08
2023-02-04T01:15:09.576Z,488.42
2023-02-04T01:17:38.149Z,483.27
2023-02-04T01:20:06.949Z,589.22
2023-02-04T01:22:36.652Z,587.35
2023-02-04T01:25:05.739Z,480.10
2023-02-04T01:27:34.153Z,544.47
2023-02-04T01:30:02.813Z,485.00
2023-02-04T01:32:31.103Z,563.72
2023-02-04T01:34:59.464Z,543.10
2023-02-04T01:37:27.830Z,542.88
2023-02-04T01:39:57.532Z,436.67
2023-02-04T01:42:25.925Z,520.33
2023-02-04T01:44:54.512Z,492.27
2023-02-04T01:47:23.630Z,577.35
2023-02-04T01:49:54.073Z,424.25
2023-02-04T01:52:22.821Z,427.55
2023-02-04T01:54:51.355Z,504.60
2023-02-04T01:57:21.097Z,464.20
2023-02-04T01:59:55.962Z,391.25
2023-02-04T02:02:41.562Z,439.23
2023-02-04T02:05:12.097Z,452.88
2023-02-04T02:07:41.550Z,475.15
2023-02-04T02:10:12.731Z,399.67
2023-02-04T02:12:42.965Z,448.30
2023-02-04T02:15:12.467Z,460.42
2023-02-04T02:17:41.400Z,481.98
2023-02-04T02:20:11.311Z,419.30
2023-02-04T02:22:46.684Z,474.17
2023-02-04T02:25:16.921Z,426.60
2023-02-04T02:27:45.558Z,466.33
2023-02-04T02:30:17.555Z,472.50
2023-02-04T02:32:46.494Z,455.65
2023-02-04T02:35:15.279Z,476.23
2023-02-04T02:37:43.719Z,509.08
2023-02-04T02:40:13.304Z,515.10
2023-02-04T02:42:44.353Z,509.95
2023-02-04T02:45:19.984Z,526.03
2023-02-04T02:47:48.483Z,543.85
2023-02-04T02:50:18.615Z,513.10
2023-02-04T02:52:47.146Z,512.75
2023-02-04T02:55:17.836Z,522.03
2023-02-04T02:57:48.649Z,583.92
2023-02-04T03:00:19.819Z,558.45
2023-02-04T03:02:57.609Z,571.17
2023-02-04T03:05:26.878Z,565.25
2023-02-04T03:07:55.220Z,561.60
2023-02-04T03:10:23.655Z,576.03
2023-02-04T03:12:53.351Z,607.72
2023-02-04T03:15:22.049Z,573.47
2023-02-04T03:17:56.147Z,580.50
2023-02-04T03:20:25.749Z,575.92
2023-02-04T03:22:54.579Z,592.42
2023-02-04T03:25:24.599Z,598.15
2023-02-04T03:27:54.922Z,560.35
2023-02-04T03:30:23.632Z,540.00
2023-02-04T03:32:52.904Z,553.80
2023-02-04T03:35:21.412Z,542.75
2023-02-04T03:37:49.775Z,578.30
2023-02-04T03:40:18.379Z,558.13
2023-02-04T03:42:46.669Z,559.35
2023-02-04T03:45:16.593Z,559.67
2023-02-04T03:47:44.974Z,598.92
2023-02-04T03:50:14.331Z,570.40
2023-02-04T03:52:42.745Z,544.50
2023-02-04T03:55:11.137Z,584.33
2023-02-04T03:57:39.523Z,564.40
2023-02-04T04:00:09.059Z,584.38
2023-02-04T04:02:38.780Z,566.67
2023-02-04T04:05:08.104Z,578.08
2023-02-04T04:07:36.438Z,563.08
2023-02-04T04:10:05.549Z,591.72
2023-02-04T04:12:34.221Z,584.45
2023-02-04T04:15:02.570Z,624.83
2023-02-04T04:17:30.946Z,615.75
2023-02-04T04:20:00.627Z,628.55
2023-02-04T04:22:29.146Z,617.63
2023-02-04T04:24:57.482Z,614.42
2023-02-04T04:27:25.981Z,594.47
2023-02-04T04:29:54.373Z,619.58
2023-02-04T04:32:22.829Z,622.05
2023-02-04T04:34:51.191Z,595.42
2023-02-04T04:37:20.880Z,599.30
2023-02-04T04:39:49.178Z,612.22
2023-02-04T04:42:17.509Z,589.33
2023-02-04T04:44:45.867Z,587.78
2023-02-04T04:47:14.324Z,595.38
2023-02-04T04:49:42.699Z,657.25
2023-02-04T04:52:11.113Z,601.17
2023-02-04T04:54:40.911Z,598.72
2023-02-04T04:57:09.319Z,595.10
2023-02-04T04:59:37.668Z,628.95
2023-02-04T05:02:06.101Z,594.45
2023-02-04T05:04:34.629Z,587.65
2023-02-04T05:07:02.988Z,604.20
2023-02-04T05:09:31.571Z,591.33
2023-02-04T05:12:01.250Z,608.55
2023-02-04T05:14:29.669Z,640.25
2023-02-04T05:16:58.035Z,650.58
2023-02-04T05:19:26.528Z,648.05
2023-02-04T05:21:54.935Z,648.47
2023-02-04T05:24:23.367Z,645.22
2023-02-04T05:26:51.701Z,620.05
2023-02-04T05:29:21.353Z,629.65
2023-02-04T05:31:49.710Z,630.78
2023-02-04T05:34:18.063Z,632.17
2023-02-04T05:36:46.399Z,618.92
2023-02-04T05:39:14.726Z,616.67
2023-02-04T05:41:43.109Z,641.22
2023-02-04T05:44:11.471Z,614.95
2023-02-04T05:46:41.177Z,674.00
2023-02-04T05:49:09.573Z,661.97
2023-02-04T05:51:38.046Z,657.50
2023-02-04T05:54:06.382Z,599.33
2023-02-04T05:56:34.760Z,641.75
2023-02-04T05:59:03.169Z,618.60
2023-02-04T06:01:31.484Z,621.60
2023-02-04T06:04:01.260Z,629.67
2023-02-04T06:06:29.643Z,624.70
2023-02-04T06:08:57.951Z,620.60
2023-02-04T06:11:26.256Z,644.50
2023-02-04T06:13:54.624Z,613.60
2023-02-04T06:16:22.986Z,611.83
2023-02-04T06:18:51.380Z,615.15
2023-02-04T06:21:21.267Z,599.78
2023-02-04T06:23:49.635Z,618.47
2023-02-04T06:26:17.986Z,653.20
2023-02-04T06:28:46.521Z,646.35
2023-02-04T06:31:14.940Z,617.47
2023-02-04T06:33:43.690Z,636.88
2023-02-04T06:36:12.227Z,674.05
2023-02-04T06:38:42.043Z,656.35
2023-02-04T06:41:10.406Z,702.97
2023-02-04T06:43:38.760Z,678.80
2023-02-04T06:46:07.380Z,679.28
2023-02-04T06:48:35.777Z,660.95
2023-02-04T06:51:04.159Z,664.92
2023-02-04T06:53:32.565Z,658.45
2023-02-04T06:56:02.245Z,669.00
2023-02-04T06:58:30.561Z,653.10
2023-02-04T07:00:58.968Z,694.58
2023-02-04T07:03:27.431Z,693.20
2023-02-04T07:05:55.916Z,670.95
2023-02-04T07:08:24.306Z,671.63
2023-02-04T07:10:52.685Z,670.33
2023-02-04T07:13:22.897Z,695.80
2023-02-04T07:15:52.937Z,643.70
2023-02-04T07:18:21.447Z,653.83
2023-02-04T07:20:49.829Z,650.17
2023-02-04T07:23:18.519Z,698.72
2023-02-04T07:25:47.018Z,654.92
2023-02-04T07:28:15.521Z,657.58
2023-02-04T07:30:45.396Z,622.60
2023-02-04T07:33:13.818Z,683.72
2023-02-04T07:35:42.238Z,638.35
2023-02-04T07:38:10.592Z,643.15
2023-02-04T07:40:39.296Z,640.67
2023-02-04T07:43:07.799Z,643.40
2023-02-04T07:45:36.764Z,643.38
2023-02-04T07:48:23.388Z,636.13
2023-02-04T07:50:51.843Z,662.92
2023-02-04T07:53:35.186Z,647.25
2023-02-04T07:56:03.649Z,648.50
2023-02-04T07:58:32.005Z,664.03
2023-02-04T08:01:01.293Z,776.42
2023-02-04T08:03:41.443Z,649.20
2023-02-04T08:06:14.186Z,609.17
2023-02-04T08:08:42.695Z,624.80
2023-02-04T08:11:11.084Z,608.72
2023-02-04T08:13:39.481Z,598.15
2023-02-04T08:16:08.321Z,563.97
2023-02-04T08:18:38.176Z,673.25
2023-02-04T08:21:06.842Z,601.25
2023-02-04T08:23:35.269Z,565.97
2023-02-04T08:26:03.615Z,610.88
2023-02-04T08:28:35.822Z,585.03
2023-02-04T08:31:04.733Z,664.50
2023-02-04T08:33:38.136Z,627.85
2023-02-04T08:36:08.245Z,539.17
2023-02-04T08:38:36.944Z,510.73
2023-02-04T08:41:09.765Z,552.78
2023-02-04T08:43:38.186Z,563.65
2023-02-04T08:46:07.570Z,487.70
2023-02-04T08:48:37.336Z,528.65
2023-02-04T08:51:06.037Z,470.02
2023-02-04T08:53:34.481Z,517.75
2023-02-04T08:56:03.209Z,473.45
2023-02-04T08:58:31.552Z,551.17
2023-02-04T09:00:59.941Z,479.90
2023-02-04T09:03:28.300Z,503.25
2023-02-04T09:05:58.031Z,470.02
2023-02-04T09:08:38.668Z,504.00
2023-02-04T09:11:07.108Z,601.40
2023-02-04T09:13:35.586Z,573.13
2023-02-04T09:16:04.038Z,559.58
2023-02-04T09:18:32.733Z,603.47
2023-02-04T09:21:36.090Z,512.38
2023-02-04T09:24:06.411Z,461.42
2023-02-04T09:26:34.819Z,537.17
2023-02-04T09:29:03.136Z,356.27
2023-02-04T09:31:31.853Z,375.88
2023-02-04T09:34:01.107Z,326.65
2023-02-04T09:36:30.630Z,233.18
2023-02-04T09:43:52.854Z,214.77
2023-02-04T09:46:24.209Z,182.75
2023-02-04T09:48:53.022Z,346.67
2023-02-04T09:51:23.979Z,181.45
2023-02-04T09:53:53.916Z,186.07
2023-02-04T09:56:22.315Z,192.73
2023-02-04T09:58:50.805Z,183.63
2023-02-04T10:01:20.562Z,237.50
2023-02-04T10:03:51.474Z,182.15
2023-02-04T10:06:22.191Z,153.13
2023-02-04T10:08:52.326Z,214.65
2023-02-04T10:11:22.544Z,141.65
2023-02-04T10:13:52.387Z,332.30
2023-02-04T10:16:23.745Z,144.98
2023-02-04T10:18:53.495Z,279.30
2023-02-04T10:21:24.038Z,242.57
2023-02-04T10:23:55.555Z,162.80
2023-02-04T10:26:25.026Z,147.18
2023-02-04T10:29:00.402Z,141.57
2023-02-04T10:31:36.002Z,185.40
2023-02-04T10:34:18.573Z,125.13
2023-02-04T10:36:49.156Z,125.57
2023-02-04T10:39:19.139Z,152.30
2023-02-04T10:41:49.909Z,120.90
2023-02-04T10:44:20.112Z,132.63
2023-02-04T10:46:48.851Z,128.63
2023-02-04T10:49:22.678Z,132.00
2023-02-04T10:51:52.779Z,265.40
2023-02-04T10:54:32.131Z,200.50
2023-02-04T10:57:02.168Z,203.20
2023-02-04T10:59:30.610Z,290.55
2023-02-04T11:02:00.519Z,153.30
2023-02-04T11:04:30.308Z,222.10
2023-02-04T11:06:58.669Z,330.55
2023-02-04T11:09:27.157Z,133.68
2023-02-04T11:11:59.596Z,162.10
2023-02-04T11:14:30.448Z,221.23
2023-02-04T11:17:01.010Z,122.97
2023-02-04T11:19:36.317Z,114.78
2023-02-04T11:22:20.179Z,117.10
2023-02-04T11:24:48.629Z,207.82
2023-02-04T11:27:26.864Z,126.40
2023-02-04T11:30:06.709Z,128.20
2023-02-04T11:32:37.897Z,122.50
2023-02-04T11:35:26.224Z,129.90
2023-02-04T11:37:55.889Z,125.78
2023-02-04T11:40:30.446Z,259.25
2023-02-04T11:43:04.085Z,127.68
2023-02-04T11:45:34.961Z,115.67
2023-02-04T11:48:05.094Z,108.97
2023-02-04T11:50:38.423Z,130.82
2023-02-04T11:53:07.288Z,166.32
2023-02-04T11:55:37.862Z,251.75
2023-02-04T11:58:10.065Z,214.27
2023-02-04T12:00:38.566Z,367.40
2023-02-04T12:03:18.257Z,121.45
2023-02-04T12:05:49.594Z,348.45
2023-02-04T12:08:28.591Z,199.02
2023-02-04T12:11:07.438Z,127.47
2023-02-04T12:13:36.347Z,101.95
2023-02-04T12:16:06.388Z,208.63
2023-02-04T12:18:36.056Z,167.70
2023-02-04T12:21:06.184Z,148.50
2023-02-04T12:23:34.597Z,102.45
2023-02-04T12:26:02.968Z,98.40
2023-02-04T12:28:31.495Z,288.77
2023-02-04T12:30:59.960Z,178.20
2023-02-04T12:33:28.675Z,104.50
2023-02-04T12:35:57.064Z,100.05
2023-02-04T12:38:27.709Z,95.25
2023-02-04T12:40:56.095Z,161.05
2023-02-04T12:43:28.169Z,111.35
2023-02-04T12:45:56.793Z,129.88
2023-02-04T12:48:25.939Z,159.40
2023-02-04T12:50:54.493Z,144.23
2023-02-04T12:53:22.976Z,109.95
2023-02-04T12:55:52.748Z,95.82
2023-02-04T12:58:21.116Z,103.85
2023-02-04T13:00:49.682Z,126.10
2023-02-04T13:03:18.671Z,112.25
2023-02-04T13:05:47.204Z,110.43
2023-02-04T13:16:03.825Z,112.43
2023-02-04T13:18:32.345Z,256.25
2023-02-04T13:21:01.739Z,122.88
2023-02-04T13:23:30.201Z,150.23
2023-02-04T13:25:58.685Z,199.73
2023-02-04T13:28:27.025Z,115.55
2023-02-04T13:30:55.461Z,147.48
2023-02-04T13:33:25.279Z,117.88
2023-02-04T13:35:53.666Z,107.63
2023-02-04T13:38:22.048Z,105.32
2023-02-04T13:40:50.438Z,241.05
2023-02-04T13:43:19.382Z,112.55
2023-02-04T13:45:48.926Z,280.60
2023-02-04T13:48:17.851Z,128.90
2023-02-04T13:50:47.729Z,154.38
2023-02-04T13:53:16.085Z,264.83
2023-02-04T13:55:44.701Z,161.77
2023-02-04T13:58:13.141Z,140.70
2023-02-04T14:00:41.615Z,231.57
2023-02-04T14:03:10.004Z,138.80
2023-02-04T14:05:38.404Z,99.25
2023-02-04T14:08:08.184Z,179.30
2023-02-04T14:10:38.559Z,112.07
2023-02-04T14:13:07.122Z,100.30
2023-02-04T14:15:37.656Z,107.28
2023-02-04T14:18:06.327Z,100.15
2023-02-04T14:20:35.974Z,97.43
2023-02-04T14:23:05.220Z,161.52
2023-02-04T14:25:35.125Z,135.90
2023-02-04T14:28:04.108Z,140.73
2023-02-04T14:30:33.616Z,157.57
2023-02-04T14:33:02.291Z,114.00
2023-02-04T14:35:49.784Z,107.85
2023-02-04T14:38:20.778Z,110.15
2023-02-04T14:40:50.850Z,225.98
2023-02-04T14:43:19.299Z,94.40
2023-02-04T14:45:50.245Z,113.38
2023-02-04T14:48:21.465Z,103.03
2023-02-04T14:50:50.066Z,177.95
2023-02-04T14:53:21.489Z,122.45
2023-02-04T14:55:51.306Z,114.80
2023-02-04T14:58:19.961Z,112.93
2023-02-04T15:00:48.794Z,115.45
2023-02-04T15:03:17.185Z,156.23
2023-02-04T15:05:45.699Z,146.15
2023-02-04T15:08:14.135Z,212.48
2023-02-04T15:10:42.624Z,224.40
2023-02-04T15:13:13.167Z,99.38
2023-02-04T15:15:41.639Z,98.70
2023-02-04T15:18:10.066Z,103.30
2023-02-04T15:20:38.527Z,140.02
2023-02-04T15:23:06.968Z,118.95
2023-02-04T15:25:38.669Z,121.40
2023-02-04T15:28:07.377Z,103.97
2023-02-04T15:30:37.657Z,86.88
2023-02-04T15:33:09.244Z,140.10
2023-02-04T15:35:37.610Z,107.03
2023-02-04T15:38:06.101Z,102.65
2023-02-04T15:40:34.707Z,105.25
2023-02-04T15:43:03.512Z,124.03
2023-02-04T15:45:31.915Z,110.82
2023-02-04T15:48:01.807Z,106.93
2023-02-04T15:50:31.312Z,146.95
2023-02-04T15:53:00.016Z,113.00
2023-02-04T15:55:28.617Z,93.40
2023-02-04T15:57:57.381Z,216.95
2023-02-04T16:00:27.672Z,175.13
2023-02-04T16:02:56.141Z,158.15
2023-02-04T16:05:26.279Z,98.45
2023-02-04T16:07:54.608Z,104.40
2023-02-04T16:10:23.363Z,104.57
2023-02-04T16:12:52.545Z,86.70
2023-02-04T16:15:20.909Z,104.00
2023-02-04T16:17:49.280Z,171.77
2023-02-04T16:20:17.904Z,124.72
2023-02-04T16:22:47.715Z,121.90
2023-02-04T16:25:16.730Z,228.77
2023-02-04T16:27:45.224Z,102.80
2023-02-04T16:30:14.461Z,214.90
2023-02-04T16:32:42.894Z,153.48
2023-02-04T16:35:11.556Z,159.32
2023-02-04T16:37:39.911Z,148.68
2023-02-04T16:40:13.514Z,201.73
2023-02-04T16:42:41.997Z,172.33
2023-02-04T16:45:13.422Z,182.68
2023-02-04T16:47:41.856Z,214.00
2023-02-04T16:50:11.217Z,129.65
2023-02-04T16:52:39.635Z,243.07
2023-02-04T16:55:10.030Z,180.05
2023-02-04T16:57:38.437Z,129.50
2023-02-04T17:00:08.114Z,209.13
2023-02-04T17:02:37.264Z,149.15
2023-02-04T17:05:06.558Z,160.57
2023-02-04T17:07:35.037Z,186.82
2023-02-04T17:10:03.564Z,193.07
2023-02-04T17:12:33.376Z,273.00
2023-02-04T17:15:01.738Z,250.50
2023-02-04T17:17:30.513Z,214.75
2023-02-04T17:20:13.412Z,251.15
2023-02-04T17:22:42.950Z,507.13
2023-02-04T17:25:11.483Z,381.02
2023-02-04T17:27:41.899Z,160.35
2023-02-04T17:30:11.842Z,150.95
2023-02-04T17:32:40.491Z,153.85
2023-02-04T17:35:09.831Z,120.35
2023-02-04T17:37:51.874Z,196.90
2023-02-04T17:40:20.681Z,191.60
2023-02-04T17:43:08.331Z,401.05
2023-02-04T17:45:37.122Z,392.88
2023-02-04T17:48:09.330Z,348.27
2023-02-04T17:50:40.077Z,248.02
2023-02-04T17:53:09.938Z,300.55
2023-02-04T17:55:49.808Z,301.65
2023-02-04T17:58:30.891Z,355.73
2023-02-04T18:01:00.229Z,374.70
2023-02-04T18:03:32.592Z,388.23
2023-02-04T18:06:02.141Z,394.70
2023-02-04T18:08:36.242Z,387.40
2023-02-04T18:11:09.506Z,819.38
2023-02-04T18:13:39.343Z,428.55
2023-02-04T18:16:17.199Z,421.85
2023-02-04T18:18:45.673Z,428.98
2023-02-04T18:21:20.369Z,459.30
2023-02-04T18:26:20.297Z,503.80
2023-02-04T18:28:51.596Z,515.65
2023-02-04T18:31:30.971Z,521.08
2023-02-04T18:33:59.499Z,543.88
2023-02-04T18:36:28.334Z,480.38
2023-02-04T18:38:57.314Z,507.13
2023-02-04T18:41:33.977Z,455.42
2023-02-04T18:44:20.512Z,542.95
2023-02-04T18:46:49.374Z,507.77
2023-02-04T18:49:22.018Z,443.88
2023-02-04T18:51:51.900Z,473.83
2023-02-04T18:54:39.564Z,600.08
2023-02-04T18:57:30.840Z,468.50
2023-02-04T19:00:27.675Z,554.50
2023-02-04T19:02:58.872Z,535.65
2023-02-04T19:05:30.408Z,530.83
2023-02-04T19:08:19.518Z,466.63
2023-02-04T19:10:48.063Z,544.45
2023-02-04T19:13:22.148Z,570.10
2023-02-04T19:16:19.003Z,600.08
2023-02-04T19:18:47.743Z,520.33
2023-02-04T19:21:24.844Z,552.30
2023-02-04T19:23:57.909Z,533.55
2023-02-04T19:26:36.158Z,536.50
2023-02-04T19:29:38.188Z,555.65
2023-02-04T19:32:23.156Z,541.60
2023-02-04T19:34:52.636Z,524.83
2023-02-04T19:37:24.681Z,534.90
2023-02-04T19:39:53.979Z,535.88
2023-02-04T19:42:30.614Z,513.72
2023-02-04T19:45:00.708Z,502.85
2023-02-04T19:47:35.614Z,529.33
2023-02-04T19:50:34.209Z,532.83
2023-02-04T19:53:04.773Z,534.95
2023-02-04T19:55:36.662Z,572.97
2023-02-04T19:58:20.302Z,555.42
2023-02-04T20:01:00.660Z,549.30
2023-02-04T20:03:37.765Z,553.75
2023-02-04T20:06:27.247Z,517.05
2023-02-04T20:09:01.529Z,528.05
2023-02-04T20:11:55.681Z,494.33
2023-02-04T20:14:47.665Z,466.88
2023-02-04T20:17:50.600Z,526.65
2023-02-04T20:20:31.001Z,524.50
2023-02-04T20:23:00.345Z,512.95
2023-02-04T20:25:40.061Z,480.08
2023-02-04T20:28:40.823Z,499.90
2023-02-04T20:31:27.140Z,500.35
2023-02-04T20:33:57.192Z,534.85
2023-02-04T20:36:47.903Z,471.77
2023-02-04T20:39:34.728Z,579.33
2023-02-04T20:42:36.161Z,504.80
2023-02-04T20:45:33.062Z,501.05
2023-02-04T20:48:11.872Z,532.05
2023-02-04T20:50:45.786Z,514.80
2023-02-04T20:53:26.490Z,498.00
2023-02-04T20:56:03.448Z,495.05
2023-02-04T20:58:36.953Z,512.65
2023-02-04T21:01:18.531Z,527.35
2023-02-04T21:03:47.061Z,512.53
2023-02-04T21:06:23.375Z,481.67
2023-02-04T21:08:54.514Z,486.67
2023-02-04T21:11:23.458Z,495.27
2023-02-04T21:13:53.501Z,512.05
2023-02-04T21:16:22.328Z,508.60
2023-02-04T21:18:50.884Z,530.28
2023-02-04T21:21:23.069Z,505.10
2023-02-04T21:23:53.008Z,452.00
2023-02-04T21:26:21.585Z,527.05
2023-02-04T21:28:50.269Z,528.42
2023-02-04T21:31:19.033Z,524.97
2023-02-04T21:33:47.661Z,477.98
2023-02-04T21:36:16.095Z,547.80
2023-02-04T21:38:47.023Z,519.95
2023-02-04T21:41:17.086Z,508.15
2023-02-04T21:43:45.580Z,480.42
2023-02-04T21:46:14.107Z,531.80
2023-02-04T21:48:42.798Z,483.85
2023-02-04T21:51:11.329Z,477.38
2023-02-04T21:53:39.983Z,480.75
2023-02-04T21:56:09.162Z,431.85
2023-02-04T21:58:39.609Z,496.88
2023-02-04T22:01:08.078Z,474.85
2023-02-04T22:03:37.001Z,469.27
2023-02-04T22:06:05.742Z,508.85
2023-02-04T22:08:34.318Z,493.52
2023-02-04T22:11:02.973Z,450.30
2023-02-04T22:13:31.532Z,486.30
2023-02-04T22:16:01.660Z,475.90
2023-02-04T22:18:30.600Z,494.20
2023-02-04T22:20:59.185Z,465.13
2023-02-04T22:23:27.722Z,478.08
2023-02-04T22:25:56.068Z,468.35
2023-02-04T22:28:24.482Z,468.73
2023-02-04T22:30:54.299Z,437.67
2023-02-04T22:33:24.458Z,394.38
2023-02-04T22:35:52.985Z,436.20
2023-02-04T22:38:21.521Z,409.40
2023-02-04T22:40:50.118Z,416.73
2023-02-04T22:43:18.808Z,380.15
2023-02-04T22:45:47.314Z,421.17
2023-02-04T22:48:15.927Z,396.48
2023-02-04T22:50:45.874Z,378.05
2023-02-04T22:53:14.349Z,394.52
2023-02-04T22:55:42.881Z,413.90
2023-02-04T22:58:11.378Z,372.33
2023-02-04T23:00:41.988Z,383.10
2023-02-04T23:03:10.556Z,382.80
2023-02-04T23:05:39.462Z,384.10
2023-02-04T23:08:09.410Z,415.92
2023-02-04T23:10:39.006Z,387.60
2023-02-04T23:13:07.985Z,389.33
2023-02-04T23:15:36.767Z,392.35
2023-02-04T23:18:05.441Z,350.75
2023-02-04T23:20:35.088Z,347.00
2023-02-04T23:23:03.778Z,350.90
2023-02-04T23:25:34.874Z,332.80
2023-02-04T23:28:03.828Z,393.45
2023-02-04T23:30:32.580Z,375.38
2023-02-04T23:33:01.177Z,378.55
2023-02-04T23:35:29.786Z,349.67
2023-02-04T23:37:58.535Z,384.20
2023-02-04T23:40:27.394Z,393.85
2023-02-04T23:42:57.310Z,343.75
2023-02-04T23:45:25.976Z,330.88
2023-02-04T23:47:54.565Z,297.23
2023-02-04T23:50:23.227Z,359.50
2023-02-04T23:52:51.763Z,327.00
2023-02-04T23:55:20.373Z,345.10
2023-02-04T23:57:49.653Z,399.58
